Time;durP1;ratioP1;P1;durP2;ratioP2;P2;SDS_P1;SDS_P2;PMS_P1;PMS_P2;Temp;Humidity;BMP_temperature;BMP_pressure;BME280_temperature;BME280_humidity;BME280_pressure;Samples;Min_cycle;Max_cycle;Signal;HPM_P1;HPM_P2
2021/12/23 00:02:23;;;;;;;8.52;5.13;;;-4.80;87.50;;;;;;4966618;28;20098;-66
2021/12/23 00:04:49;;;;;;;11.40;5.05;;;-5.00;87.10;;;;;;4966748;28;20149;-66
2021/12/23 00:07:14;;;;;;;10.35;5.53;;;-5.00;87.00;;;;;;4994466;28;20030;-66
2021/12/23 00:10:22;;;;;;;13.65;6.60;;;-5.00;87.50;;;;;;4967449;28;20035;-67
2021/12/23 00:12:29;;;;;;;14.13;6.65;;;-5.20;88.10;;;;;;4968640;28;20654;-66
2021/12/23 00:14:55;;;;;;;11.68;6.53;;;-5.30;88.80;;;;;;4968110;28;20030;-66
2021/12/23 00:17:27;;;;;;;10.30;6.38;;;-5.30;89.20;;;;;;4975764;28;20031;-66
2021/12/23 00:23:22;;;;;;;15.82;6.63;;;-5.30;89.20;;;;;;4978191;28;20497;-66
2021/12/23 00:25:30;;;;;;;13.25;7.28;;;-5.30;90.00;;;;;;4975721;28;20128;-66
2021/12/23 00:27:56;;;;;;;14.32;6.45;;;-5.40;90.00;;;;;;4979623;28;20121;-66
2021/12/23 00:30:21;;;;;;;15.63;8.50;;;-5.40;90.20;;;;;;4980157;28;20034;-66
2021/12/23 00:32:47;;;;;;;14.10;7.22;;;-5.40;90.40;;;;;;4976538;28;20042;-66
2021/12/23 00:35:13;;;;;;;15.77;8.82;;;-5.30;90.20;;;;;;4981115;28;20043;-66
2021/12/23 00:37:42;;;;;;;12.93;6.70;;;-5.30;90.00;;;;;;4981578;28;20026;-66
2021/12/23 00:40:11;;;;;;;10.77;6.28;;;-5.30;90.20;;;;;;4978571;28;20225;-66
2021/12/23 00:42:37;;;;;;;11.38;7.65;;;-5.30;90.10;;;;;;4975860;28;20562;-66
2021/12/23 00:45:04;;;;;;;13.98;6.72;;;-5.20;90.10;;;;;;4978145;28;20132;-66
2021/12/23 00:47:30;;;;;;;12.23;6.85;;;-5.20;90.20;;;;;;4976371;28;20580;-66
2021/12/23 00:49:56;;;;;;;10.02;5.53;;;-5.20;90.10;;;;;;4977981;28;20034;-66
2021/12/23 00:52:31;;;;;;;10.25;6.20;;;-5.20;88.80;;;;;;4977420;28;20089;-66
2021/12/23 00:54:56;;;;;;;11.82;5.90;;;-5.30;88.30;;;;;;4983292;28;20034;-67
2021/12/23 00:57:30;;;;;;;10.68;6.50;;;-5.30;88.00;;;;;;4976989;28;20102;-66
2021/12/23 00:59:57;;;;;;;9.68;5.75;;;-5.40;88.10;;;;;;4980163;28;20038;-66
2021/12/23 01:02:32;;;;;;;11.77;6.03;;;-5.40;88.20;;;;;;4980797;28;20477;-66
2021/12/23 01:04:59;;;;;;;10.73;5.88;;;-5.40;88.90;;;;;;4976213;28;20033;-66
2021/12/23 01:07:25;;;;;;;10.70;5.57;;;-5.50;89.10;;;;;;4975753;28;20114;-66
2021/12/23 01:09:51;;;;;;;11.02;6.35;;;-5.40;88.80;;;;;;4976970;28;20122;-67
2021/12/23 01:12:20;;;;;;;9.40;6.03;;;-5.40;89.10;;;;;;4983083;28;20022;-66
2021/12/23 01:14:56;;;;;;;12.27;6.10;;;-5.40;88.90;;;;;;4981900;28;20030;-66
2021/12/23 01:17:31;;;;;;;9.95;5.63;;;-5.40;88.00;;;;;;4977817;28;20031;-66
2021/12/23 01:20:00;;;;;;;10.60;6.55;;;-5.40;87.90;;;;;;4975954;28;20034;-66
2021/12/23 01:22:26;;;;;;;13.65;7.47;;;-5.50;88.20;;;;;;4970182;28;20580;-66
2021/12/23 01:24:52;;;;;;;13.02;7.00;;;-5.50;88.60;;;;;;4977804;28;20046;-66
2021/12/23 01:27:18;;;;;;;15.18;7.43;;;-5.50;89.10;;;;;;4978985;28;20542;-66
2021/12/23 01:29:44;;;;;;;14.55;7.90;;;-5.60;89.10;;;;;;4981673;28;20038;-66
2021/12/23 01:32:10;;;;;;;15.27;9.48;;;-5.60;89.40;;;;;;4986102;28;20142;-66
2021/12/23 01:34:36;;;;;;;16.58;8.50;;;-5.70;89.70;;;;;;4980515;28;20057;-66
2021/12/23 01:37:05;;;;;;;15.27;9.32;;;-5.70;89.90;;;;;;4978321;28;20030;-66
2021/12/23 01:39:32;;;;;;;14.35;8.30;;;-5.70;90.20;;;;;;4979607;28;20041;-66
2021/12/23 01:41:58;;;;;;;16.35;7.38;;;-5.60;90.10;;;;;;4981849;28;20066;-66
2021/12/23 01:44:24;;;;;;;13.10;7.57;;;-5.60;89.70;;;;;;4981391;28;20508;-66
2021/12/23 01:46:49;;;;;;;12.32;7.18;;;-5.60;88.60;;;;;;4978540;28;20046;-66
2021/12/23 01:49:16;;;;;;;14.30;8.18;;;-5.80;89.20;;;;;;4980733;28;20031;-65
2021/12/23 01:51:41;;;;;;;16.77;8.15;;;-5.80;90.00;;;;;;4981118;28;20039;-66
2021/12/23 01:54:07;;;;;;;16.33;9.13;;;-5.80;90.20;;;;;;4983352;28;20525;-66
2021/12/23 01:56:33;;;;;;;14.95;8.38;;;-5.70;90.20;;;;;;4980623;28;20037;-65
2021/12/23 01:58:59;;;;;;;18.13;9.90;;;-5.70;90.30;;;;;;4981723;28;20081;-66
2021/12/23 02:01:25;;;;;;;26.42;12.23;;;-5.60;90.50;;;;;;4980061;28;20114;-66
2021/12/23 02:03:51;;;;;;;22.27;12.18;;;-5.50;90.60;;;;;;4984170;28;20032;-66
2021/12/23 02:06:16;;;;;;;30.95;14.80;;;-5.40;90.60;;;;;;4979155;28;20097;-66
2021/12/23 02:08:43;;;;;;;33.00;14.60;;;-5.30;90.50;;;;;;4978803;28;20030;-67
2021/12/23 02:11:10;;;;;;;42.38;19.23;;;-5.30;90.30;;;;;;4980073;28;20482;-66
2021/12/23 02:13:37;;;;;;;22.17;10.32;;;-5.30;90.70;;;;;;4983546;28;20029;-67
2021/12/23 02:16:03;;;;;;;11.88;7.60;;;-5.20;90.60;;;;;;4982453;28;20045;-66
2021/12/23 02:18:29;;;;;;;14.00;7.22;;;-5.30;88.80;;;;;;4981062;28;20041;-67
2021/12/23 02:20:57;;;;;;;14.90;7.60;;;-5.30;88.00;;;;;;4978733;28;20034;-67
2021/12/23 02:23:24;;;;;;;13.70;7.93;;;-5.40;87.20;;;;;;4980592;28;20673;-67
2021/12/23 02:25:49;;;;;;;13.00;7.43;;;-5.40;87.40;;;;;;4975390;28;20085;-67
2021/12/23 02:28:20;;;;;;;12.77;7.90;;;-5.60;87.70;;;;;;4980565;28;20038;-66
2021/12/23 02:30:51;;;;;;;12.68;7.85;;;-5.60;87.90;;;;;;4978662;28;21299;-67
2021/12/23 02:33:19;;;;;;;13.35;7.45;;;-5.60;88.40;;;;;;4979091;28;20034;-67
2021/12/23 02:35:45;;;;;;;14.07;8.25;;;-5.70;88.40;;;;;;4980330;28;20043;-67
2021/12/23 02:38:11;;;;;;;14.65;8.80;;;-5.80;88.90;;;;;;4977407;28;20061;-67
2021/12/23 02:40:40;;;;;;;23.95;11.15;;;-5.80;89.50;;;;;;4979130;28;20031;-67
2021/12/23 02:43:15;;;;;;;17.10;8.75;;;-5.80;90.00;;;;;;4978034;28;20022;-67
2021/12/23 02:45:43;;;;;;;14.15;7.68;;;-5.80;90.10;;;;;;4977580;28;20034;-67
2021/12/23 02:48:14;;;;;;;23.67;8.70;;;-5.70;89.60;;;;;;4978964;28;20177;-67
2021/12/23 02:50:45;;;;;;;16.95;8.82;;;-5.70;89.20;;;;;;4981441;28;20073;-67
2021/12/23 02:53:11;;;;;;;13.20;7.63;;;-5.70;88.80;;;;;;4980590;28;20035;-66
2021/12/23 02:55:37;;;;;;;18.10;7.60;;;-5.70;88.60;;;;;;4979220;28;20092;-67
2021/12/23 02:58:03;;;;;;;14.30;8.05;;;-5.80;88.60;;;;;;5009930;28;20046;-66
2021/12/23 03:00:30;;;;;;;14.98;7.97;;;-5.80;88.90;;;;;;4977439;28;20030;-67
2021/12/23 03:02:55;;;;;;;12.88;8.32;;;-5.90;89.00;;;;;;4978322;28;20019;-67
2021/12/23 03:05:21;;;;;;;16.27;7.72;;;-5.80;88.70;;;;;;4978544;28;20497;-66
2021/12/23 03:07:47;;;;;;;17.17;8.55;;;-5.90;88.60;;;;;;4976211;28;20114;-66
2021/12/23 03:10:12;;;;;;;16.25;7.68;;;-5.90;88.30;;;;;;4975671;28;20027;-67
2021/12/23 03:12:38;;;;;;;13.23;8.05;;;-5.90;87.90;;;;;;4973600;28;20037;-67
2021/12/23 03:15:04;;;;;;;14.40;8.35;;;-5.90;87.90;;;;;;4977477;28;20035;-67
2021/12/23 03:17:30;;;;;;;16.00;9.50;;;-5.90;88.20;;;;;;4974817;28;20113;-67
2021/12/23 03:19:56;;;;;;;18.92;9.27;;;-5.90;88.80;;;;;;4977592;28;20026;-67
2021/12/23 03:22:22;;;;;;;21.45;10.43;;;-5.90;88.90;;;;;;4977561;28;20038;-67
2021/12/23 03:24:48;;;;;;;14.95;8.40;;;-5.90;89.70;;;;;;4973903;28;20449;-66
2021/12/23 03:27:14;;;;;;;14.80;8.95;;;-6.00;89.80;;;;;;4977984;28;20041;-66
2021/12/23 03:29:39;;;;;;;18.13;8.90;;;-6.00;89.30;;;;;;4969023;28;20146;-65
2021/12/23 03:32:05;;;;;;;16.98;9.35;;;-6.20;89.30;;;;;;4975345;28;20158;-66
2021/12/23 03:34:31;;;;;;;15.40;8.48;;;-6.20;89.90;;;;;;4976082;28;20027;-65
2021/12/23 03:36:57;;;;;;;14.98;8.75;;;-6.10;89.60;;;;;;4974150;28;20481;-65
2021/12/23 03:39:23;;;;;;;17.90;9.38;;;-6.10;88.70;;;;;;4973119;28;20041;-66
2021/12/23 03:41:49;;;;;;;12.55;7.75;;;-6.10;88.30;;;;;;4974987;28;20030;-65
2021/12/23 03:44:15;;;;;;;14.65;8.32;;;-6.10;88.50;;;;;;4978495;28;20034;-66
2021/12/23 03:46:41;;;;;;;16.00;9.07;;;-6.10;88.30;;;;;;4973707;28;20056;-66
2021/12/23 03:49:07;;;;;;;14.27;8.18;;;-6.10;88.50;;;;;;4976100;28;20448;-66
2021/12/23 03:51:34;;;;;;;14.50;8.10;;;-6.20;88.10;;;;;;4975130;28;20049;-66
2021/12/23 03:54:00;;;;;;;21.23;9.43;;;-6.30;88.10;;;;;;4975558;28;20027;-66
2021/12/23 03:56:25;;;;;;;16.00;8.68;;;-6.30;88.70;;;;;;4975990;28;20032;-66
2021/12/23 03:58:51;;;;;;;18.05;9.75;;;-6.30;89.30;;;;;;4974299;28;20038;-66
2021/12/23 04:01:17;;;;;;;19.77;10.57;;;-6.20;89.70;;;;;;4975789;28;20035;-66
2021/12/23 04:03:43;;;;;;;25.95;12.25;;;-6.10;89.90;;;;;;4976955;28;20113;-66
2021/12/23 04:06:08;;;;;;;19.52;9.40;;;-6.00;89.90;;;;;;4976679;28;20034;-66
2021/12/23 04:08:34;;;;;;;23.00;12.80;;;-6.00;89.60;;;;;;4974020;28;20038;-66
2021/12/23 04:11:01;;;;;;;23.77;13.20;;;-6.00;90.00;;;;;;4975918;28;20031;-67
2021/12/23 04:13:27;;;;;;;22.63;11.00;;;-6.00;89.70;;;;;;4976647;28;20763;-66
2021/12/23 04:15:53;;;;;;;24.50;12.48;;;-6.00;89.20;;;;;;4976593;28;20058;-66
2021/12/23 04:18:19;;;;;;;19.42;11.38;;;-6.00;89.40;;;;;;4974804;28;20654;-66
2021/12/23 04:21:03;;;;;;;19.25;11.25;;;-6.00;88.80;;;;;;4978585;28;20093;-65
2021/12/23 04:23:31;;;;;;;14.50;7.95;;;-6.00;88.10;;;;;;4978046;28;20038;-65
2021/12/23 04:25:56;;;;;;;16.75;9.23;;;-6.00;88.00;;;;;;4976690;28;20598;-66
2021/12/23 04:28:24;;;;;;;15.77;9.38;;;-6.10;87.10;;;;;;4974158;28;20125;-66
2021/12/23 04:30:50;;;;;;;16.88;9.40;;;-6.10;87.30;;;;;;4976772;28;20481;-66
2021/12/23 04:33:16;;;;;;;18.08;9.45;;;-6.20;87.50;;;;;;4972740;28;20030;-66
2021/12/23 04:35:42;;;;;;;19.58;8.55;;;-6.30;87.90;;;;;;4977287;28;20138;-66
2021/12/23 04:38:07;;;;;;;21.35;10.15;;;-6.30;87.90;;;;;;4981927;28;20572;-65
2021/12/23 04:40:34;;;;;;;15.38;9.35;;;-6.30;88.50;;;;;;4979310;28;20840;-66
2021/12/23 04:43:05;;;;;;;18.35;9.77;;;-6.20;88.70;;;;;;4977776;28;20477;-65
2021/12/23 04:45:31;;;;;;;17.77;10.07;;;-6.20;88.30;;;;;;4982322;28;20041;-63
2021/12/23 04:47:56;;;;;;;18.50;11.02;;;-6.20;88.70;;;;;;4981985;28;20062;-66
2021/12/23 04:50:22;;;;;;;24.15;12.68;;;-6.20;89.10;;;;;;4985350;28;20384;-65
2021/12/23 04:52:48;;;;;;;24.92;12.88;;;-6.20;89.60;;;;;;4980972;28;20031;-66
2021/12/23 04:55:15;;;;;;;22.55;11.98;;;-6.20;89.30;;;;;;4981707;28;20109;-66
2021/12/23 04:57:42;;;;;;;20.50;11.48;;;-6.20;89.80;;;;;;4982031;28;20432;-66
2021/12/23 05:00:13;;;;;;;30.30;15.50;;;-6.10;89.60;;;;;;4979910;28;20074;-66
2021/12/23 05:02:38;;;;;;;24.70;12.93;;;-6.10;89.80;;;;;;4978243;28;20062;-65
2021/12/23 05:05:05;;;;;;;26.05;12.00;;;-6.10;89.50;;;;;;4982310;28;20503;-66
2021/12/23 05:07:31;;;;;;;22.30;11.93;;;-6.10;89.60;;;;;;4985125;28;20145;-66
2021/12/23 05:09:56;;;;;;;26.63;13.77;;;-6.00;89.00;;;;;;4983738;28;20142;-66
2021/12/23 05:12:22;;;;;;;25.80;13.43;;;-6.00;88.50;;;;;;4982258;28;20061;-66
2021/12/23 05:14:48;;;;;;;27.25;14.60;;;-6.10;89.10;;;;;;4982252;28;20074;-66
2021/12/23 05:17:13;;;;;;;38.28;20.85;;;-6.10;89.40;;;;;;4980615;28;20042;-66
2021/12/23 05:19:39;;;;;;;43.38;22.33;;;-6.10;89.60;;;;;;4978888;28;20088;-66
2021/12/23 05:22:04;;;;;;;22.40;12.82;;;-6.10;89.90;;;;;;4980723;28;20045;-65
2021/12/23 05:24:30;;;;;;;24.10;13.48;;;-6.00;90.00;;;;;;4981420;28;20030;-66
2021/12/23 05:26:56;;;;;;;26.23;12.10;;;-6.10;89.00;;;;;;4978672;28;20079;-65
2021/12/23 05:29:22;;;;;;;19.25;10.30;;;-6.10;89.80;;;;;;4981244;28;20052;-67
2021/12/23 05:31:47;;;;;;;20.13;10.95;;;-6.10;89.30;;;;;;4981896;28;20031;-66
2021/12/23 05:34:13;;;;;;;24.52;12.32;;;-6.10;89.10;;;;;;4981262;28;20073;-66
2021/12/23 05:36:39;;;;;;;28.30;14.38;;;-6.10;89.60;;;;;;4978444;28;20079;-66
2021/12/23 05:39:05;;;;;;;27.25;12.75;;;-6.00;90.10;;;;;;4981165;28;20086;-66
2021/12/23 05:41:31;;;;;;;24.10;12.25;;;-6.00;90.30;;;;;;4979177;28;20026;-67
2021/12/23 05:43:57;;;;;;;18.65;10.80;;;-5.90;90.40;;;;;;4981003;28;20050;-66
2021/12/23 05:46:23;;;;;;;36.25;16.10;;;-5.90;90.20;;;;;;4980598;28;20030;-66
2021/12/23 05:48:49;;;;;;;44.55;18.92;;;-5.90;90.60;;;;;;4980890;28;20045;-67
2021/12/23 05:51:15;;;;;;;61.00;29.30;;;-5.80;91.10;;;;;;4978660;28;20034;-66
2021/12/23 05:53:41;;;;;;;72.03;33.55;;;-5.70;91.40;;;;;;4980676;28;20512;-66
2021/12/23 05:56:07;;;;;;;67.10;31.70;;;-5.70;91.70;;;;;;4979518;28;20031;-66
2021/12/23 05:58:32;;;;;;;48.70;24.92;;;-5.60;92.00;;;;;;4982297;28;20405;-66
2021/12/23 06:00:58;;;;;;;37.80;20.15;;;-5.50;92.10;;;;;;4977997;28;20045;-67
2021/12/23 06:03:24;;;;;;;41.70;23.08;;;-5.60;92.10;;;;;;4980311;28;20034;-66
2021/12/23 06:05:50;;;;;;;56.03;27.10;;;-5.70;92.30;;;;;;4980598;28;20035;-64
2021/12/23 06:08:16;;;;;;;76.70;34.42;;;-5.70;92.40;;;;;;4980261;28;20041;-66
2021/12/23 06:10:42;;;;;;;74.53;35.28;;;-5.60;92.40;;;;;;4980361;28;20488;-66
2021/12/23 06:13:08;;;;;;;82.22;37.90;;;-5.50;92.80;;;;;;4984371;28;20437;-66
2021/12/23 06:15:34;;;;;;;90.82;42.40;;;-5.50;92.80;;;;;;4979889;28;20080;-67
2021/12/23 06:17:59;;;;;;;70.50;34.60;;;-5.50;92.90;;;;;;5012886;28;20030;-66
2021/12/23 06:20:25;;;;;;;67.22;32.90;;;-5.40;93.10;;;;;;4980472;28;20110;-66
2021/12/23 06:22:51;;;;;;;62.92;32.42;;;-5.30;93.10;;;;;;4979815;28;20022;-66
2021/12/23 06:25:17;;;;;;;76.38;37.38;;;-5.20;93.10;;;;;;4978954;28;20030;-66
2021/12/23 06:27:43;;;;;;;72.18;37.22;;;-5.00;93.20;;;;;;4978353;28;20286;-66
2021/12/23 06:30:21;;;;;;;64.90;33.13;;;-5.00;93.40;;;;;;4978881;28;20034;-66
2021/12/23 06:32:50;;;;;;;65.90;33.47;;;-4.90;93.80;;;;;;4979727;28;20584;-65
2021/12/23 06:35:17;;;;;;;64.00;33.00;;;-4.70;93.40;;;;;;4978034;28;20041;-66
2021/12/23 06:37:43;;;;;;;68.40;34.45;;;-4.70;93.30;;;;;;4980396;28;20109;-65
2021/12/23 06:40:09;;;;;;;67.70;34.50;;;-4.60;93.50;;;;;;4971319;28;20034;-65
2021/12/23 06:42:35;;;;;;;68.90;35.90;;;-4.50;93.40;;;;;;4976506;28;20054;-65
2021/12/23 06:45:03;;;;;;;68.47;35.08;;;-4.40;93.30;;;;;;4975088;28;20060;-66
2021/12/23 06:47:28;;;;;;;57.58;30.85;;;-4.40;93.40;;;;;;4978940;28;20050;-65
2021/12/23 06:49:54;;;;;;;59.70;30.45;;;-4.30;93.50;;;;;;4977221;28;20034;-65
2021/12/23 06:52:23;;;;;;;54.28;30.25;;;-4.20;93.30;;;;;;4981650;28;20069;-66
2021/12/23 06:54:52;;;;;;;57.60;30.92;;;-4.10;93.30;;;;;;4975818;28;20037;-65
2021/12/23 06:57:19;;;;;;;73.07;39.33;;;-4.10;93.20;;;;;;4978255;28;20023;-65
2021/12/23 06:59:44;;;;;;;86.80;42.90;;;-4.00;93.10;;;;;;4976084;28;20038;-66
2021/12/23 07:02:10;;;;;;;72.50;40.53;;;-3.90;93.10;;;;;;4980868;28;20078;-66
2021/12/23 07:04:37;;;;;;;76.38;38.70;;;-3.90;93.20;;;;;;4979430;28;20034;-66
2021/12/23 07:07:10;;;;;;;64.65;34.00;;;-3.90;93.30;;;;;;4973520;28;20493;-65
2021/12/23 07:09:43;;;;;;;62.13;35.20;;;-3.80;93.60;;;;;;4977820;28;20042;-65
2021/12/23 07:12:10;;;;;;;80.53;40.83;;;-3.70;93.70;;;;;;4979754;28;20082;-66
2021/12/23 07:14:37;;;;;;;78.25;41.40;;;-3.70;93.60;;;;;;4976311;28;20042;-67
2021/12/23 07:17:03;;;;;;;68.95;38.35;;;-3.60;93.80;;;;;;4974527;28;20026;-66
2021/12/23 07:19:29;;;;;;;62.78;35.60;;;-3.50;94.00;;;;;;4980406;28;20042;-67
2021/12/23 07:21:55;;;;;;;67.85;38.35;;;-3.40;94.00;;;;;;4976406;28;20037;-66
2021/12/23 07:24:21;;;;;;;94.82;45.20;;;-3.30;94.00;;;;;;4979334;28;20100;-66
2021/12/23 07:26:48;;;;;;;72.93;40.05;;;-3.30;94.00;;;;;;4977628;28;20022;-67
2021/12/23 07:29:14;;;;;;;80.50;44.20;;;-3.20;94.50;;;;;;4980221;28;20319;-67
2021/12/23 07:31:39;;;;;;;105.43;54.88;;;-3.10;94.50;;;;;;4979340;28;20113;-67
2021/12/23 07:34:05;;;;;;;110.68;56.50;;;-3.10;94.50;;;;;;4978842;28;20179;-67
2021/12/23 07:36:31;;;;;;;91.30;49.35;;;-3.00;94.60;;;;;;4980003;28;20117;-67
2021/12/23 07:38:57;;;;;;;99.07;53.10;;;-3.10;94.80;;;;;;4979168;28;20049;-67
2021/12/23 07:41:26;;;;;;;102.55;50.88;;;-3.10;94.70;;;;;;4981120;28;20043;-67
2021/12/23 07:43:58;;;;;;;107.70;57.90;;;-3.00;94.80;;;;;;4975244;28;20039;-66
2021/12/23 07:46:29;;;;;;;386.17;202.70;;;-2.90;94.70;;;;;;4977241;28;20049;-66
2021/12/23 07:48:55;;;;;;;183.00;99.07;;;-3.00;94.80;;;;;;4978231;28;20497;-67
2021/12/23 07:51:22;;;;;;;138.15;70.82;;;-2.90;95.10;;;;;;4978833;28;20034;-66
2021/12/23 07:53:48;;;;;;;122.05;65.97;;;-2.80;95.20;;;;;;4976852;28;20042;-67
2021/12/23 07:56:13;;;;;;;181.40;94.57;;;-2.70;94.90;;;;;;4977729;28;20551;-67
2021/12/23 07:58:39;;;;;;;124.85;68.07;;;-2.60;94.70;;;;;;4976619;28;20026;-67
2021/12/23 08:01:05;;;;;;;101.93;53.40;;;-2.60;94.80;;;;;;4978333;28;20084;-66
2021/12/23 08:03:31;;;;;;;83.45;46.15;;;-2.50;94.60;;;;;;4980826;28;20034;-67
2021/12/23 08:05:57;;;;;;;56.63;32.67;;;-2.50;94.60;;;;;;4979190;28;20111;-66
2021/12/23 08:08:23;;;;;;;52.10;30.75;;;-2.40;94.60;;;;;;4977669;28;20441;-67
2021/12/23 08:10:50;;;;;;;52.97;30.40;;;-2.40;94.50;;;;;;4977617;28;20424;-67
2021/12/23 08:13:16;;;;;;;49.97;28.67;;;-2.30;94.40;;;;;;4975072;28;20481;-67
2021/12/23 08:15:42;;;;;;;46.97;27.83;;;-2.30;94.70;;;;;;4977707;28;20023;-67
2021/12/23 08:18:08;;;;;;;43.75;27.48;;;-2.30;94.70;;;;;;4977066;28;20519;-65
2021/12/23 08:20:34;;;;;;;41.33;24.15;;;-2.20;94.70;;;;;;4982519;28;20043;-66
2021/12/23 08:23:00;;;;;;;37.08;23.60;;;-2.20;94.80;;;;;;4981023;28;20023;-67
2021/12/23 08:25:26;;;;;;;39.95;24.73;;;-2.10;94.90;;;;;;4981986;28;20042;-67
2021/12/23 08:27:52;;;;;;;42.30;23.85;;;-2.10;94.90;;;;;;4983002;28;20118;-67
2021/12/23 08:30:19;;;;;;;43.72;23.65;;;-2.00;94.90;;;;;;4981928;28;20137;-68
2021/12/23 08:32:46;;;;;;;33.88;22.10;;;-1.90;94.60;;;;;;4982921;28;20142;-67
2021/12/23 08:35:12;;;;;;;42.88;24.77;;;-1.80;94.60;;;;;;4979943;28;21203;-67
2021/12/23 08:37:40;;;;;;;37.28;23.00;;;-1.80;94.50;;;;;;4981556;28;20030;-67
2021/12/23 08:40:07;;;;;;;37.95;22.80;;;-1.70;94.60;;;;;;4981230;28;20038;-67
2021/12/23 08:42:34;;;;;;;38.28;21.58;;;-1.70;94.40;;;;;;4982037;28;20101;-67
2021/12/23 08:45:00;;;;;;;33.33;20.52;;;-1.60;94.50;;;;;;4979023;28;22230;-67
2021/12/23 08:47:26;;;;;;;35.97;21.92;;;-1.60;94.70;;;;;;4982201;28;20771;-67
2021/12/23 08:49:51;;;;;;;33.97;21.73;;;-1.50;94.80;;;;;;4978108;28;20041;-67
2021/12/23 08:52:17;;;;;;;37.08;21.45;;;-1.50;94.90;;;;;;4980683;28;20027;-67
2021/12/23 08:54:43;;;;;;;32.25;19.77;;;-1.40;94.80;;;;;;4982556;28;20037;-67
2021/12/23 08:57:10;;;;;;;33.60;20.38;;;-1.40;94.70;;;;;;4981726;28;20037;-66
2021/12/23 08:59:36;;;;;;;29.55;19.67;;;-1.30;94.60;;;;;;4979775;28;20479;-67
2021/12/23 09:02:02;;;;;;;29.05;18.20;;;-1.20;94.40;;;;;;4982689;28;20030;-67
2021/12/23 09:04:28;;;;;;;27.77;17.70;;;-1.20;94.20;;;;;;4981495;28;20077;-67
2021/12/23 09:06:53;;;;;;;29.40;18.92;;;-1.10;94.00;;;;;;4979910;28;20885;-67
2021/12/23 09:09:19;;;;;;;33.63;20.17;;;-1.00;93.80;;;;;;4979547;28;20522;-67
2021/12/23 09:11:46;;;;;;;35.03;23.20;;;-1.00;93.60;;;;;;4980015;28;20035;-67
2021/12/23 09:14:12;;;;;;;32.67;20.92;;;-0.90;93.50;;;;;;4981355;28;20652;-67
2021/12/23 09:16:38;;;;;;;29.02;19.88;;;-0.90;93.40;;;;;;4982390;28;20034;-66
2021/12/23 09:19:05;;;;;;;36.47;22.02;;;-0.80;93.10;;;;;;4984360;28;20034;-67
2021/12/23 09:21:30;;;;;;;30.70;19.92;;;-0.80;93.40;;;;;;4984474;28;20046;-67
2021/12/23 09:23:56;;;;;;;35.03;21.77;;;-0.70;93.50;;;;;;4975985;28;20038;-67
2021/12/23 09:26:23;;;;;;;35.28;23.02;;;-0.60;93.20;;;;;;4977824;28;20031;-68
2021/12/23 09:34:02;;;;;;;145.43;25.73;;;-0.60;93.70;;;;;;4982752;28;20049;-68
2021/12/23 09:36:27;;;;;;;35.72;22.55;;;-0.40;93.60;;;;;;4976192;28;20054;-68
2021/12/23 09:38:53;;;;;;;37.80;23.65;;;-0.30;93.30;;;;;;4977848;28;20531;-67
2021/12/23 09:41:21;;;;;;;29.48;17.23;;;-0.30;93.00;;;;;;4977927;28;20508;-66
2021/12/23 09:43:48;;;;;;;28.10;17.88;;;-0.30;92.80;;;;;;4980973;28;20026;-66
2021/12/23 09:46:20;;;;;;;28.05;18.45;;;-0.30;92.90;;;;;;4981085;28;20034;-67
2021/12/23 09:48:48;;;;;;;29.63;18.42;;;-0.30;92.60;;;;;;4993350;28;20472;-67
2021/12/23 09:51:17;;;;;;;28.58;17.67;;;-0.30;92.40;;;;;;4977495;28;20030;-67
2021/12/23 09:53:46;;;;;;;28.92;19.17;;;-0.30;92.70;;;;;;4980219;28;20121;-66
2021/12/23 09:56:13;;;;;;;29.00;17.63;;;-0.20;92.50;;;;;;4979783;28;20026;-67
2021/12/23 09:58:39;;;;;;;29.02;18.63;;;-0.20;92.50;;;;;;4982501;28;20030;-67
2021/12/23 10:01:07;;;;;;;29.92;18.65;;;-0.30;92.70;;;;;;4978100;28;20046;-67
2021/12/23 10:03:33;;;;;;;33.13;17.67;;;-0.20;92.40;;;;;;4978196;28;20042;-67
2021/12/23 10:05:59;;;;;;;31.05;19.55;;;-0.10;92.10;;;;;;4982130;28;20401;-66
2021/12/23 10:08:26;;;;;;;31.10;17.42;;;-0.10;91.90;;;;;;4986651;28;20031;-67
2021/12/23 10:11:10;;;;;;;28.25;18.45;;;0.10;91.40;;;;;;4980581;28;20030;-66
2021/12/23 10:30:49;;;;;;;22.50;14.88;;;0.40;90.40;;;;;;4982976;28;20031;-66
2021/12/23 10:38:46;;;;;;;22.30;14.77;;;0.60;90.50;;;;;;4980010;28;20057;-66
2021/12/23 10:41:20;;;;;;;22.33;14.73;;;0.60;90.50;;;;;;4979576;28;20145;-66
2021/12/23 10:43:54;;;;;;;23.08;15.05;;;0.60;90.10;;;;;;4980978;28;20614;-66
2021/12/23 10:46:33;;;;;;;19.13;13.65;;;0.60;90.40;;;;;;5016126;28;20440;-67
2021/12/23 10:49:32;;;;;;;23.38;15.57;;;0.50;90.70;;;;;;4983599;28;20042;-67
2021/12/23 10:52:19;;;;;;;23.75;15.70;;;0.50;90.60;;;;;;4982362;28;20109;-67
2021/12/23 11:00:38;;;;;;;23.90;15.55;;;0.70;90.10;;;;;;4984003;28;20092;-67
2021/12/23 11:03:29;;;;;;;365.83;178.88;;;0.60;90.10;;;;;;4974277;28;20039;-66
2021/12/23 11:06:17;;;;;;;101.95;53.55;;;0.40;89.30;;;;;;4978340;28;20506;-66
2021/12/23 11:39:11;;;;;;;19.52;13.77;;;1.00;88.10;;;;;;4979473;28;20076;-66
2021/12/23 11:41:46;;;;;;;21.02;13.88;;;1.00;88.50;;;;;;4977085;28;20046;-67
2021/12/23 11:44:13;;;;;;;19.20;12.85;;;1.00;89.10;;;;;;4982305;28;20100;-67
2021/12/23 11:46:46;;;;;;;17.85;12.82;;;1.00;89.00;;;;;;4980791;28;20456;-66
2021/12/23 11:49:13;;;;;;;18.75;12.73;;;1.00;88.40;;;;;;4974471;28;20022;-66
2021/12/23 11:54:13;;;;;;;18.85;12.88;;;1.10;88.80;;;;;;4974898;28;20039;-66
2021/12/23 11:56:51;;;;;;;19.23;12.57;;;1.10;87.70;;;;;;4981042;28;20158;-66
2021/12/23 11:59:18;;;;;;;16.92;11.05;;;1.10;87.60;;;;;;4980366;28;20124;-66
2021/12/23 12:01:52;;;;;;;15.85;11.35;;;1.20;85.20;;;;;;4980903;28;20034;-66
2021/12/23 12:04:45;;;;;;;20.77;10.60;;;1.20;85.00;;;;;;4978953;28;20031;-66
2021/12/23 12:07:20;;;;;;;17.95;9.32;;;1.20;83.90;;;;;;4980546;28;20105;-66
2021/12/23 12:10:06;;;;;;;14.90;9.55;;;1.20;81.30;;;;;;4979335;28;20048;-66
2021/12/23 12:12:33;;;;;;;15.30;10.15;;;1.10;82.20;;;;;;4978214;28;20101;-66
2021/12/23 12:15:00;;;;;;;53.55;28.80;;;1.20;82.60;;;;;;4980328;28;20030;-66
2021/12/23 12:17:26;;;;;;;16.38;10.90;;;1.20;82.50;;;;;;4983347;28;20030;-66
2021/12/23 12:20:00;;;;;;;16.25;9.82;;;1.30;81.70;;;;;;4978284;28;20041;-66
2021/12/23 12:22:47;;;;;;;23.98;13.95;;;1.30;80.20;;;;;;4979976;28;20031;-66
2021/12/23 12:25:38;;;;;;;17.17;10.30;;;1.40;80.90;;;;;;4981193;28;20023;-66
2021/12/23 12:28:04;;;;;;;15.93;10.15;;;1.40;80.60;;;;;;4980684;28;20076;-66
2021/12/23 12:31:15;;;;;;;16.80;9.98;;;1.30;80.00;;;;;;4981609;28;20122;-66
2021/12/23 12:33:42;;;;;;;20.88;13.10;;;1.30;79.90;;;;;;4979000;28;20047;-67
2021/12/23 12:36:16;;;;;;;31.58;18.30;;;1.20;79.60;;;;;;4981443;28;20018;-67
2021/12/23 12:38:48;;;;;;;18.52;10.68;;;0.90;80.60;;;;;;4978878;28;20034;-66
2021/12/23 12:41:25;;;;;;;16.98;11.32;;;0.90;80.80;;;;;;4981049;28;20085;-67
2021/12/23 12:44:00;;;;;;;21.63;12.82;;;0.90;82.10;;;;;;4981107;28;20054;-66
2021/12/23 12:47:04;;;;;;;24.23;12.07;;;1.00;82.30;;;;;;4981265;28;20026;-67
2021/12/23 12:49:27;;;;;;;35.17;21.70;;;1.00;81.20;;;;;;4978593;28;20054;-67
2021/12/23 12:52:06;;;;;;;41.80;24.67;;;0.90;81.50;;;;;;4978995;28;20113;-66
2021/12/23 12:54:33;;;;;;;49.10;27.45;;;0.70;81.60;;;;;;4983057;28;20101;-67
2021/12/23 12:57:04;;;;;;;43.88;24.95;;;0.40;81.90;;;;;;4982421;28;20084;-66
2021/12/23 12:59:36;;;;;;;44.15;26.85;;;0.30;83.00;;;;;;4982113;28;20627;-67
2021/12/23 13:02:17;;;;;;;56.60;34.05;;;0.10;83.60;;;;;;4980999;28;20030;-66
2021/12/23 13:04:53;;;;;;;21.02;12.43;;;0.20;84.00;;;;;;4981441;28;20049;-67
2021/12/23 13:07:35;;;;;;;43.47;25.17;;;0.20;84.50;;;;;;4978191;28;20081;-66
2021/12/23 13:10:11;;;;;;;24.25;15.48;;;0.40;83.80;;;;;;4985362;28;20034;-68
2021/12/23 13:12:51;;;;;;;22.00;11.05;;;0.50;84.70;;;;;;4984305;28;20061;-66
2021/12/23 13:15:17;;;;;;;20.40;12.07;;;0.70;84.20;;;;;;4982986;28;20385;-67
2021/12/23 13:17:55;;;;;;;30.52;17.55;;;0.90;83.60;;;;;;4977347;28;20026;-67
2021/12/23 13:20:53;;;;;;;18.67;12.10;;;1.00;83.70;;;;;;4973151;28;20046;-67
2021/12/23 13:23:32;;;;;;;17.10;10.93;;;1.20;83.30;;;;;;4983920;28;20041;-66
2021/12/23 13:26:11;;;;;;;20.27;12.13;;;1.30;82.90;;;;;;4983110;28;20097;-66
2021/12/23 13:28:47;;;;;;;18.38;11.95;;;1.40;82.70;;;;;;4984835;28;20027;-66
2021/12/23 13:31:19;;;;;;;24.65;14.75;;;1.40;83.00;;;;;;4982805;28;21133;-67
2021/12/23 13:33:57;;;;;;;27.65;15.25;;;1.50;84.10;;;;;;4976582;28;20030;-66
2021/12/23 13:36:28;;;;;;;19.10;12.10;;;1.50;84.00;;;;;;4980915;28;20109;-65
2021/12/23 13:39:03;;;;;;;19.33;12.35;;;1.60;83.80;;;;;;4978136;28;20041;-66
2021/12/23 13:41:30;;;;;;;25.40;13.02;;;1.60;83.50;;;;;;4982057;28;20158;-65
2021/12/23 13:44:16;;;;;;;23.25;14.27;;;1.60;83.20;;;;;;4981565;28;20038;-66
2021/12/23 13:46:42;;;;;;;24.10;15.13;;;1.70;83.70;;;;;;4984306;28;20050;-66
2021/12/23 13:49:08;;;;;;;22.00;15.27;;;1.70;83.80;;;;;;4980034;28;20189;-65